sensor_id;sensor_type;location;lat;lon;timestamp;P1;durP1;ratioP1;P2;durP2;ratioP2
33162;SDS011;29282;45.656;11.302;2023-02-28T00:00:34;3.35;;;1.65;;
33162;SDS011;29282;45.656;11.302;2023-02-28T00:03:00;1.70;;;1.42;;
33162;SDS011;29282;45.656;11.302;2023-02-28T00:05:26;1.48;;;1.38;;
33162;SDS011;29282;45.656;11.302;2023-02-28T00:07:53;2.40;;;1.60;;
33162;SDS011;29282;45.656;11.302;2023-02-28T00:10:21;2.08;;;1.70;;
33162;SDS011;29282;45.656;11.302;2023-02-28T00:12:52;1.60;;;1.50;;
33162;SDS011;29282;45.656;11.302;2023-02-28T00:15:19;1.60;;;1.40;;
33162;SDS011;29282;45.656;11.302;2023-02-28T00:17:45;2.53;;;1.50;;
33162;SDS011;29282;45.656;11.302;2023-02-28T00:20:12;3.00;;;1.65;;
33162;SDS011;29282;45.656;11.302;2023-02-28T00:22:38;1.83;;;1.73;;
33162;SDS011;29282;45.656;11.302;2023-02-28T00:25:06;2.10;;;1.50;;
33162;SDS011;29282;45.656;11.302;2023-02-28T00:27:32;2.65;;;1.58;;
33162;SDS011;29282;45.656;11.302;2023-02-28T00:29:58;2.10;;;1.52;;
33162;SDS011;29282;45.656;11.302;2023-02-28T00:32:24;3.03;;;1.60;;
33162;SDS011;29282;45.656;11.302;2023-02-28T00:34:49;1.70;;;1.45;;
33162;SDS011;29282;45.656;11.302;2023-02-28T00:37:15;1.40;;;1.30;;
33162;SDS011;29282;45.656;11.302;2023-02-28T00:39:40;1.83;;;1.50;;
33162;SDS011;29282;45.656;11.302;2023-02-28T00:42:06;1.80;;;1.50;;
33162;SDS011;29282;45.656;11.302;2023-02-28T00:44:33;1.63;;;1.40;;
33162;SDS011;29282;45.656;11.302;2023-02-28T00:46:59;1.55;;;1.42;;
33162;SDS011;29282;45.656;11.302;2023-02-28T00:49:25;2.05;;;1.63;;
33162;SDS011;29282;45.656;11.302;2023-02-28T00:51:52;1.58;;;1.30;;
33162;SDS011;29282;45.656;11.302;2023-02-28T00:54:19;1.40;;;1.30;;
33162;SDS011;29282;45.656;11.302;2023-02-28T00:56:44;1.45;;;1.35;;
33162;SDS011;29282;45.656;11.302;2023-02-28T00:59:11;1.55;;;1.38;;
33162;SDS011;29282;45.656;11.302;2023-02-28T01:01:37;1.80;;;1.60;;
33162;SDS011;29282;45.656;11.302;2023-02-28T01:04:03;1.70;;;1.48;;
33162;SDS011;29282;45.656;11.302;2023-02-28T01:06:29;2.03;;;1.40;;
33162;SDS011;29282;45.656;11.302;2023-02-28T01:08:55;1.75;;;1.42;;
33162;SDS011;29282;45.656;11.302;2023-02-28T01:11:21;2.50;;;1.48;;
33162;SDS011;29282;45.656;11.302;2023-02-28T01:13:46;1.50;;;1.40;;
33162;SDS011;29282;45.656;11.302;2023-02-28T01:16:12;1.50;;;1.40;;
33162;SDS011;29282;45.656;11.302;2023-02-28T01:18:38;1.73;;;1.40;;
33162;SDS011;29282;45.656;11.302;2023-02-28T01:21:05;1.92;;;1.65;;
33162;SDS011;29282;45.656;11.302;2023-02-28T01:23:32;1.83;;;1.52;;
33162;SDS011;29282;45.656;11.302;2023-02-28T01:26:03;1.70;;;1.52;;
33162;SDS011;29282;45.656;11.302;2023-02-28T01:28:32;2.25;;;1.67;;
33162;SDS011;29282;45.656;11.302;2023-02-28T01:30:59;1.60;;;1.50;;
33162;SDS011;29282;45.656;11.302;2023-02-28T01:33:24;1.58;;;1.48;;
33162;SDS011;29282;45.656;11.302;2023-02-28T01:35:57;1.90;;;1.58;;
33162;SDS011;29282;45.656;11.302;2023-02-28T01:38:26;1.75;;;1.45;;
33162;SDS011;29282;45.656;11.302;2023-02-28T01:40:52;1.63;;;1.50;;
33162;SDS011;29282;45.656;11.302;2023-02-28T01:45:54;1.90;;;1.70;;
33162;SDS011;29282;45.656;11.302;2023-02-28T01:48:22;2.10;;;1.55;;
33162;SDS011;29282;45.656;11.302;2023-02-28T01:50:55;1.80;;;1.70;;
33162;SDS011;29282;45.656;11.302;2023-02-28T01:53:27;2.17;;;1.70;;
33162;SDS011;29282;45.656;11.302;2023-02-28T01:55:57;1.77;;;1.67;;
33162;SDS011;29282;45.656;11.302;2023-02-28T01:58:23;1.50;;;1.40;;
33162;SDS011;29282;45.656;11.302;2023-02-28T02:00:49;1.50;;;1.40;;
33162;SDS011;29282;45.656;11.302;2023-02-28T02:03:15;1.52;;;1.40;;
33162;SDS011;29282;45.656;11.302;2023-02-28T02:05:46;2.15;;;1.52;;
33162;SDS011;29282;45.656;11.302;2023-02-28T02:08:19;1.75;;;1.45;;
33162;SDS011;29282;45.656;11.302;2023-02-28T02:10:48;1.40;;;1.30;;
33162;SDS011;29282;45.656;11.302;2023-02-28T02:16:00;1.90;;;1.50;;
33162;SDS011;29282;45.656;11.302;2023-02-28T02:19:10;2.08;;;1.83;;
33162;SDS011;29282;45.656;11.302;2023-02-28T02:22:12;1.65;;;1.30;;
33162;SDS011;29282;45.656;11.302;2023-02-28T02:27:39;2.03;;;1.58;;
33162;SDS011;29282;45.656;11.302;2023-02-28T02:41:00;1.40;;;1.30;;
33162;SDS011;29282;45.656;11.302;2023-02-28T02:43:44;1.90;;;1.48;;
33162;SDS011;29282;45.656;11.302;2023-02-28T02:46:17;2.60;;;1.50;;
33162;SDS011;29282;45.656;11.302;2023-02-28T02:48:46;1.67;;;1.52;;
33162;SDS011;29282;45.656;11.302;2023-02-28T02:51:14;1.70;;;1.60;;
33162;SDS011;29282;45.656;11.302;2023-02-28T02:54:29;1.65;;;1.45;;
33162;SDS011;29282;45.656;11.302;2023-02-28T02:56:34;1.52;;;1.42;;
33162;SDS011;29282;45.656;11.302;2023-02-28T02:59:06;1.90;;;1.40;;
33162;SDS011;29282;45.656;11.302;2023-02-28T03:01:34;1.60;;;1.50;;
33162;SDS011;29282;45.656;11.302;2023-02-28T03:04:07;1.30;;;1.20;;
33162;SDS011;29282;45.656;11.302;2023-02-28T03:06:36;1.33;;;1.23;;
33162;SDS011;29282;45.656;11.302;2023-02-28T03:09:02;1.50;;;1.40;;
33162;SDS011;29282;45.656;11.302;2023-02-28T03:11:29;1.70;;;1.40;;
33162;SDS011;29282;45.656;11.302;2023-02-28T03:24:45;1.40;;;1.30;;
33162;SDS011;29282;45.656;11.302;2023-02-28T03:27:16;1.50;;;1.40;;
33162;SDS011;29282;45.656;11.302;2023-02-28T03:29:51;1.70;;;1.60;;
33162;SDS011;29282;45.656;11.302;2023-02-28T03:32:32;1.60;;;1.50;;
33162;SDS011;29282;45.656;11.302;2023-02-28T03:35:08;2.58;;;1.42;;
33162;SDS011;29282;45.656;11.302;2023-02-28T03:37:38;1.60;;;1.50;;
33162;SDS011;29282;45.656;11.302;2023-02-28T03:40:14;2.15;;;1.40;;
33162;SDS011;29282;45.656;11.302;2023-02-28T03:42:46;1.63;;;1.30;;
33162;SDS011;29282;45.656;11.302;2023-02-28T03:45:22;2.08;;;1.60;;
33162;SDS011;29282;45.656;11.302;2023-02-28T03:47:54;1.50;;;1.40;;
33162;SDS011;29282;45.656;11.302;2023-02-28T03:50:47;1.58;;;1.48;;
33162;SDS011;29282;45.656;11.302;2023-02-28T03:53:32;2.35;;;1.40;;
33162;SDS011;29282;45.656;11.302;2023-02-28T03:56:05;1.40;;;1.30;;
33162;SDS011;29282;45.656;11.302;2023-02-28T03:58:42;1.63;;;1.52;;
33162;SDS011;29282;45.656;11.302;2023-02-28T04:01:23;1.40;;;1.30;;
33162;SDS011;29282;45.656;11.302;2023-02-28T04:03:58;1.52;;;1.40;;
33162;SDS011;29282;45.656;11.302;2023-02-28T04:06:23;1.70;;;1.25;;
33162;SDS011;29282;45.656;11.302;2023-02-28T04:08:49;1.40;;;1.30;;
33162;SDS011;29282;45.656;11.302;2023-02-28T04:14:01;1.55;;;1.45;;
33162;SDS011;29282;45.656;11.302;2023-02-28T04:16:29;1.30;;;1.20;;
33162;SDS011;29282;45.656;11.302;2023-02-28T04:18:54;1.58;;;1.48;;
33162;SDS011;29282;45.656;11.302;2023-02-28T04:21:28;1.80;;;1.50;;
33162;SDS011;29282;45.656;11.302;2023-02-28T04:23:55;1.42;;;1.33;;
33162;SDS011;29282;45.656;11.302;2023-02-28T04:26:25;1.95;;;1.30;;
33162;SDS011;29282;45.656;11.302;2023-02-28T04:29:02;3.00;;;1.50;;
33162;SDS011;29282;45.656;11.302;2023-02-28T04:31:30;1.63;;;1.35;;
33162;SDS011;29282;45.656;11.302;2023-02-28T04:33:55;1.52;;;1.40;;
33162;SDS011;29282;45.656;11.302;2023-02-28T04:36:21;1.73;;;1.50;;
33162;SDS011;29282;45.656;11.302;2023-02-28T04:38:48;1.40;;;1.30;;
33162;SDS011;29282;45.656;11.302;2023-02-28T04:41:14;1.42;;;1.33;;
33162;SDS011;29282;45.656;11.302;2023-02-28T04:43:41;1.90;;;1.70;;
33162;SDS011;29282;45.656;11.302;2023-02-28T04:46:07;1.58;;;1.40;;
33162;SDS011;29282;45.656;11.302;2023-02-28T04:48:34;1.30;;;1.20;;
33162;SDS011;29282;45.656;11.302;2023-02-28T04:51:05;1.40;;;1.30;;
33162;SDS011;29282;45.656;11.302;2023-02-28T04:53:33;1.42;;;1.23;;
33162;SDS011;29282;45.656;11.302;2023-02-28T04:55:59;1.70;;;1.42;;
33162;SDS011;29282;45.656;11.302;2023-02-28T04:58:25;2.00;;;1.80;;
33162;SDS011;29282;45.656;11.302;2023-02-28T05:00:51;1.30;;;1.20;;
33162;SDS011;29282;45.656;11.302;2023-02-28T05:03:18;2.00;;;1.40;;
33162;SDS011;29282;45.656;11.302;2023-02-28T05:05:45;1.48;;;1.30;;
33162;SDS011;29282;45.656;11.302;2023-02-28T05:08:11;1.40;;;1.30;;
33162;SDS011;29282;45.656;11.302;2023-02-28T05:10:36;2.00;;;1.40;;
33162;SDS011;29282;45.656;11.302;2023-02-28T05:13:02;1.60;;;1.50;;
33162;SDS011;29282;45.656;11.302;2023-02-28T05:15:27;1.88;;;1.40;;
33162;SDS011;29282;45.656;11.302;2023-02-28T05:17:53;1.75;;;1.40;;
33162;SDS011;29282;45.656;11.302;2023-02-28T05:20:19;1.30;;;1.20;;
33162;SDS011;29282;45.656;11.302;2023-02-28T05:22:46;1.42;;;1.33;;
33162;SDS011;29282;45.656;11.302;2023-02-28T05:25:13;1.67;;;1.58;;
33162;SDS011;29282;45.656;11.302;2023-02-28T05:27:42;1.45;;;1.35;;
33162;SDS011;29282;45.656;11.302;2023-02-28T05:30:08;4.20;;;1.70;;
33162;SDS011;29282;45.656;11.302;2023-02-28T05:32:38;2.60;;;2.10;;
33162;SDS011;29282;45.656;11.302;2023-02-28T05:35:08;2.22;;;1.75;;
33162;SDS011;29282;45.656;11.302;2023-02-28T05:37:34;3.28;;;2.10;;
33162;SDS011;29282;45.656;11.302;2023-02-28T05:40:00;4.60;;;2.08;;
33162;SDS011;29282;45.656;11.302;2023-02-28T05:42:26;2.58;;;2.10;;
33162;SDS011;29282;45.656;11.302;2023-02-28T05:44:51;2.72;;;2.20;;
33162;SDS011;29282;45.656;11.302;2023-02-28T05:47:17;4.15;;;2.55;;
33162;SDS011;29282;45.656;11.302;2023-02-28T05:49:42;2.28;;;2.08;;
33162;SDS011;29282;45.656;11.302;2023-02-28T05:52:08;2.75;;;2.03;;
33162;SDS011;29282;45.656;11.302;2023-02-28T05:54:33;2.95;;;2.30;;
33162;SDS011;29282;45.656;11.302;2023-02-28T05:56:59;2.90;;;2.40;;
33162;SDS011;29282;45.656;11.302;2023-02-28T05:59:24;4.78;;;2.50;;
33162;SDS011;29282;45.656;11.302;2023-02-28T06:01:50;6.05;;;2.30;;
33162;SDS011;29282;45.656;11.302;2023-02-28T06:04:18;3.08;;;2.30;;
33162;SDS011;29282;45.656;11.302;2023-02-28T06:06:46;6.93;;;2.20;;
33162;SDS011;29282;45.656;11.302;2023-02-28T06:09:12;5.18;;;2.35;;
33162;SDS011;29282;45.656;11.302;2023-02-28T06:11:38;3.13;;;2.70;;
33162;SDS011;29282;45.656;11.302;2023-02-28T06:14:04;2.67;;;2.25;;
33162;SDS011;29282;45.656;11.302;2023-02-28T06:16:30;3.13;;;2.40;;
33162;SDS011;29282;45.656;11.302;2023-02-28T06:18:58;3.45;;;2.47;;
33162;SDS011;29282;45.656;11.302;2023-02-28T06:21:25;4.50;;;2.55;;
33162;SDS011;29282;45.656;11.302;2023-02-28T06:23:52;3.20;;;2.60;;
33162;SDS011;29282;45.656;11.302;2023-02-28T06:26:18;3.38;;;2.60;;
33162;SDS011;29282;45.656;11.302;2023-02-28T06:28:45;3.78;;;2.35;;
33162;SDS011;29282;45.656;11.302;2023-02-28T06:31:11;2.45;;;2.10;;
33162;SDS011;29282;45.656;11.302;2023-02-28T06:33:39;4.80;;;2.50;;
33162;SDS011;29282;45.656;11.302;2023-02-28T06:36:05;6.28;;;2.50;;
33162;SDS011;29282;45.656;11.302;2023-02-28T06:38:32;2.60;;;2.40;;
33162;SDS011;29282;45.656;11.302;2023-02-28T06:40:58;3.28;;;2.53;;
33162;SDS011;29282;45.656;11.302;2023-02-28T06:43:27;2.47;;;2.28;;
33162;SDS011;29282;45.656;11.302;2023-02-28T06:45:55;2.97;;;2.50;;
33162;SDS011;29282;45.656;11.302;2023-02-28T06:48:21;3.15;;;2.60;;
33162;SDS011;29282;45.656;11.302;2023-02-28T06:50:47;3.13;;;2.40;;
33162;SDS011;29282;45.656;11.302;2023-02-28T06:53:13;3.00;;;2.70;;
33162;SDS011;29282;45.656;11.302;2023-02-28T06:55:39;2.78;;;2.38;;
33162;SDS011;29282;45.656;11.302;2023-02-28T06:58:05;5.80;;;2.67;;
33162;SDS011;29282;45.656;11.302;2023-02-28T07:00:42;10.93;;;2.83;;
33162;SDS011;29282;45.656;11.302;2023-02-28T07:03:07;5.80;;;3.03;;
33162;SDS011;29282;45.656;11.302;2023-02-28T07:05:34;4.15;;;2.70;;
33162;SDS011;29282;45.656;11.302;2023-02-28T07:08:00;4.90;;;2.40;;
33162;SDS011;29282;45.656;11.302;2023-02-28T07:10:26;3.42;;;2.60;;
33162;SDS011;29282;45.656;11.302;2023-02-28T07:12:52;4.18;;;2.67;;
33162;SDS011;29282;45.656;11.302;2023-02-28T07:15:18;6.95;;;2.80;;
33162;SDS011;29282;45.656;11.302;2023-02-28T07:17:43;5.90;;;2.67;;
33162;SDS011;29282;45.656;11.302;2023-02-28T07:20:09;8.27;;;2.90;;
33162;SDS011;29282;45.656;11.302;2023-02-28T07:22:35;5.55;;;2.75;;
33162;SDS011;29282;45.656;11.302;2023-02-28T07:25:01;4.55;;;2.75;;
33162;SDS011;29282;45.656;11.302;2023-02-28T07:27:26;5.03;;;3.00;;
33162;SDS011;29282;45.656;11.302;2023-02-28T07:29:52;3.58;;;3.00;;
33162;SDS011;29282;45.656;11.302;2023-02-28T07:32:18;5.53;;;2.95;;
33162;SDS011;29282;45.656;11.302;2023-02-28T07:34:47;4.70;;;2.88;;
33162;SDS011;29282;45.656;11.302;2023-02-28T07:37:13;6.93;;;2.92;;
33162;SDS011;29282;45.656;11.302;2023-02-28T07:39:39;5.00;;;2.92;;
33162;SDS011;29282;45.656;11.302;2023-02-28T07:42:07;4.65;;;2.72;;
33162;SDS011;29282;45.656;11.302;2023-02-28T07:44:35;5.45;;;3.00;;
33162;SDS011;29282;45.656;11.302;2023-02-28T07:47:05;5.60;;;3.15;;
33162;SDS011;29282;45.656;11.302;2023-02-28T07:49:32;13.45;;;3.75;;
33162;SDS011;29282;45.656;11.302;2023-02-28T07:51:57;7.90;;;3.90;;
33162;SDS011;29282;45.656;11.302;2023-02-28T07:54:23;6.70;;;3.03;;
33162;SDS011;29282;45.656;11.302;2023-02-28T07:56:48;4.68;;;3.28;;
33162;SDS011;29282;45.656;11.302;2023-02-28T07:59:14;5.28;;;3.30;;
33162;SDS011;29282;45.656;11.302;2023-02-28T08:01:39;11.02;;;3.30;;
33162;SDS011;29282;45.656;11.302;2023-02-28T08:04:05;3.92;;;3.20;;
33162;SDS011;29282;45.656;11.302;2023-02-28T08:06:30;4.18;;;3.13;;
33162;SDS011;29282;45.656;11.302;2023-02-28T08:08:56;6.57;;;3.20;;
33162;SDS011;29282;45.656;11.302;2023-02-28T08:11:21;5.82;;;4.07;;
33162;SDS011;29282;45.656;11.302;2023-02-28T08:13:47;5.18;;;3.50;;
33162;SDS011;29282;45.656;11.302;2023-02-28T08:16:13;7.35;;;3.50;;
33162;SDS011;29282;45.656;11.302;2023-02-28T08:18:46;7.60;;;3.47;;
33162;SDS011;29282;45.656;11.302;2023-02-28T08:21:12;4.95;;;3.40;;
33162;SDS011;29282;45.656;11.302;2023-02-28T08:23:38;8.30;;;3.20;;
33162;SDS011;29282;45.656;11.302;2023-02-28T08:26:04;6.30;;;3.28;;
33162;SDS011;29282;45.656;11.302;2023-02-28T08:28:29;6.85;;;3.20;;
33162;SDS011;29282;45.656;11.302;2023-02-28T08:30:55;4.38;;;3.20;;
33162;SDS011;29282;45.656;11.302;2023-02-28T08:33:21;4.78;;;3.30;;
33162;SDS011;29282;45.656;11.302;2023-02-28T08:35:47;6.85;;;3.17;;
33162;SDS011;29282;45.656;11.302;2023-02-28T08:38:13;7.13;;;3.40;;
33162;SDS011;29282;45.656;11.302;2023-02-28T08:40:38;6.70;;;3.45;;
33162;SDS011;29282;45.656;11.302;2023-02-28T08:43:04;8.18;;;3.45;;
33162;SDS011;29282;45.656;11.302;2023-02-28T08:45:29;3.70;;;3.03;;
33162;SDS011;29282;45.656;11.302;2023-02-28T08:47:55;4.75;;;3.08;;
33162;SDS011;29282;45.656;11.302;2023-02-28T08:50:21;4.70;;;3.38;;
33162;SDS011;29282;45.656;11.302;2023-02-28T08:52:47;4.85;;;3.22;;
33162;SDS011;29282;45.656;11.302;2023-02-28T08:55:12;5.47;;;3.03;;
33162;SDS011;29282;45.656;11.302;2023-02-28T08:57:38;5.22;;;3.17;;
33162;SDS011;29282;45.656;11.302;2023-02-28T09:00:04;3.10;;;2.80;;
33162;SDS011;29282;45.656;11.302;2023-02-28T09:02:30;4.45;;;2.85;;
33162;SDS011;29282;45.656;11.302;2023-02-28T09:04:56;5.70;;;3.20;;
33162;SDS011;29282;45.656;11.302;2023-02-28T09:07:23;5.47;;;3.53;;
33162;SDS011;29282;45.656;11.302;2023-02-28T09:09:48;8.20;;;3.67;;
33162;SDS011;29282;45.656;11.302;2023-02-28T09:12:23;4.28;;;2.92;;
33162;SDS011;29282;45.656;11.302;2023-02-28T09:14:50;4.18;;;3.17;;
33162;SDS011;29282;45.656;11.302;2023-02-28T09:17:16;3.25;;;2.75;;
33162;SDS011;29282;45.656;11.302;2023-02-28T09:19:42;6.68;;;2.95;;
33162;SDS011;29282;45.656;11.302;2023-02-28T09:22:09;4.53;;;3.22;;
33162;SDS011;29282;45.656;11.302;2023-02-28T09:24:38;3.90;;;3.30;;
33162;SDS011;29282;45.656;11.302;2023-02-28T09:27:04;6.00;;;3.38;;
33162;SDS011;29282;45.656;11.302;2023-02-28T09:29:31;4.18;;;3.03;;
33162;SDS011;29282;45.656;11.302;2023-02-28T09:31:57;4.28;;;3.00;;
33162;SDS011;29282;45.656;11.302;2023-02-28T09:34:26;4.03;;;2.80;;
33162;SDS011;29282;45.656;11.302;2023-02-28T09:36:53;3.88;;;2.72;;
33162;SDS011;29282;45.656;11.302;2023-02-28T09:39:20;4.38;;;3.15;;
33162;SDS011;29282;45.656;11.302;2023-02-28T09:41:50;4.85;;;3.00;;
33162;SDS011;29282;45.656;11.302;2023-02-28T09:44:39;4.60;;;3.10;;
33162;SDS011;29282;45.656;11.302;2023-02-28T09:47:13;3.38;;;2.83;;
33162;SDS011;29282;45.656;11.302;2023-02-28T09:49:46;4.35;;;3.20;;
33162;SDS011;29282;45.656;11.302;2023-02-28T09:52:17;7.05;;;3.08;;
33162;SDS011;29282;45.656;11.302;2023-02-28T09:54:45;3.70;;;3.28;;
33162;SDS011;29282;45.656;11.302;2023-02-28T10:05:39;3.10;;;2.80;;
33162;SDS011;29282;45.656;11.302;2023-02-28T10:11:01;5.43;;;3.80;;
33162;SDS011;29282;45.656;11.302;2023-02-28T10:16:37;5.15;;;3.97;;
33162;SDS011;29282;45.656;11.302;2023-02-28T10:24:41;5.07;;;4.13;;
33162;SDS011;29282;45.656;11.302;2023-02-28T10:27:24;4.97;;;4.00;;
33162;SDS011;29282;45.656;11.302;2023-02-28T10:29:57;4.28;;;3.75;;
33162;SDS011;29282;45.656;11.302;2023-02-28T10:32:26;3.80;;;3.42;;
33162;SDS011;29282;45.656;11.302;2023-02-28T10:35:06;5.10;;;3.63;;
33162;SDS011;29282;45.656;11.302;2023-02-28T10:37:38;3.60;;;3.30;;
33162;SDS011;29282;45.656;11.302;2023-02-28T10:40:05;3.83;;;3.30;;
33162;SDS011;29282;45.656;11.302;2023-02-28T10:42:33;4.85;;;3.22;;
33162;SDS011;29282;45.656;11.302;2023-02-28T10:47:39;4.65;;;3.22;;
33162;SDS011;29282;45.656;11.302;2023-02-28T11:01:24;3.10;;;2.72;;
33162;SDS011;29282;45.656;11.302;2023-02-28T11:04:00;4.05;;;3.00;;
33162;SDS011;29282;45.656;11.302;2023-02-28T11:06:28;3.03;;;2.72;;
33162;SDS011;29282;45.656;11.302;2023-02-28T11:08:56;3.75;;;3.30;;
33162;SDS011;29282;45.656;11.302;2023-02-28T11:11:25;3.30;;;2.75;;
33162;SDS011;29282;45.656;11.302;2023-02-28T11:13:54;3.08;;;2.78;;
33162;SDS011;29282;45.656;11.302;2023-02-28T11:16:22;4.65;;;3.33;;
33162;SDS011;29282;45.656;11.302;2023-02-28T11:18:58;4.28;;;2.83;;
33162;SDS011;29282;45.656;11.302;2023-02-28T11:21:32;3.30;;;2.97;;
33162;SDS011;29282;45.656;11.302;2023-02-28T11:26:49;3.03;;;2.75;;
33162;SDS011;29282;45.656;11.302;2023-02-28T11:29:21;3.08;;;2.78;;
33162;SDS011;29282;45.656;11.302;2023-02-28T11:34:34;3.65;;;2.70;;
33162;SDS011;29282;45.656;11.302;2023-02-28T11:37:01;3.45;;;2.78;;
33162;SDS011;29282;45.656;11.302;2023-02-28T11:39:30;3.92;;;2.78;;
33162;SDS011;29282;45.656;11.302;2023-02-28T11:44:41;4.78;;;2.70;;
33162;SDS011;29282;45.656;11.302;2023-02-28T11:47:32;3.15;;;2.60;;
33162;SDS011;29282;45.656;11.302;2023-02-28T12:14:05;3.45;;;2.35;;
33162;SDS011;29282;45.656;11.302;2023-02-28T12:19:17;3.75;;;2.42;;
33162;SDS011;29282;45.656;11.302;2023-02-28T12:26:38;4.20;;;2.70;;
33162;SDS011;29282;45.656;11.302;2023-02-28T12:29:10;3.78;;;2.60;;
33162;SDS011;29282;45.656;11.302;2023-02-28T12:31:56;4.38;;;2.53;;
33162;SDS011;29282;45.656;11.302;2023-02-28T12:34:38;3.17;;;2.25;;
33162;SDS011;29282;45.656;11.302;2023-02-28T12:37:17;3.45;;;2.60;;
33162;SDS011;29282;45.656;11.302;2023-02-28T12:39:55;4.10;;;2.40;;
33162;SDS011;29282;45.656;11.302;2023-02-28T12:42:33;3.63;;;2.63;;
33162;SDS011;29282;45.656;11.302;2023-02-28T12:47:49;6.13;;;2.28;;
33162;SDS011;29282;45.656;11.302;2023-02-28T12:50:28;5.68;;;2.60;;
33162;SDS011;29282;45.656;11.302;2023-02-28T12:53:03;7.65;;;2.60;;
33162;SDS011;29282;45.656;11.302;2023-02-28T12:55:45;4.85;;;2.83;;
33162;SDS011;29282;45.656;11.302;2023-02-28T12:58:38;7.15;;;2.78;;
33162;SDS011;29282;45.656;11.302;2023-02-28T13:01:31;4.47;;;2.40;;
33162;SDS011;29282;45.656;11.302;2023-02-28T13:09:36;5.03;;;2.42;;
33162;SDS011;29282;45.656;11.302;2023-02-28T13:12:23;6.38;;;2.85;;
33162;SDS011;29282;45.656;11.302;2023-02-28T13:14:49;3.03;;;2.70;;
33162;SDS011;29282;45.656;11.302;2023-02-28T13:17:19;6.28;;;3.03;;
33162;SDS011;29282;45.656;11.302;2023-02-28T13:19:56;5.22;;;2.90;;
33162;SDS011;29282;45.656;11.302;2023-02-28T13:28:14;8.48;;;2.80;;
33162;SDS011;29282;45.656;11.302;2023-02-28T13:31:25;4.63;;;2.60;;
33162;SDS011;29282;45.656;11.302;2023-02-28T13:36:23;3.83;;;2.42;;
33162;SDS011;29282;45.656;11.302;2023-02-28T13:38:57;4.78;;;2.63;;
33162;SDS011;29282;45.656;11.302;2023-02-28T13:41:47;3.70;;;2.75;;
33162;SDS011;29282;45.656;11.302;2023-02-28T13:51:48;5.63;;;3.05;;
33162;SDS011;29282;45.656;11.302;2023-02-28T13:57:08;3.78;;;2.65;;
33162;SDS011;29282;45.656;11.302;2023-02-28T14:08:45;5.05;;;2.45;;
33162;SDS011;29282;45.656;11.302;2023-02-28T14:11:31;4.00;;;2.22;;
33162;SDS011;29282;45.656;11.302;2023-02-28T14:13:59;3.60;;;2.55;;
33162;SDS011;29282;45.656;11.302;2023-02-28T14:16:26;2.80;;;2.40;;
33162;SDS011;29282;45.656;11.302;2023-02-28T14:19:00;4.90;;;2.47;;
33162;SDS011;29282;45.656;11.302;2023-02-28T14:21:33;7.38;;;2.55;;
33162;SDS011;29282;45.656;11.302;2023-02-28T14:26:38;3.35;;;2.33;;
33162;SDS011;29282;45.656;11.302;2023-02-28T14:29:34;4.03;;;2.92;;
33162;SDS011;29282;45.656;11.302;2023-02-28T14:37:26;5.05;;;2.70;;
33162;SDS011;29282;45.656;11.302;2023-02-28T14:39:59;4.97;;;2.70;;
33162;SDS011;29282;45.656;11.302;2023-02-28T14:44:56;2.88;;;2.03;;
33162;SDS011;29282;45.656;11.302;2023-02-28T14:47:22;5.65;;;2.72;;
33162;SDS011;29282;45.656;11.302;2023-02-28T14:49:51;4.28;;;2.38;;
33162;SDS011;29282;45.656;11.302;2023-02-28T14:52:19;3.50;;;2.50;;
33162;SDS011;29282;45.656;11.302;2023-02-28T14:54:51;4.40;;;2.30;;
33162;SDS011;29282;45.656;11.302;2023-02-28T14:57:33;4.25;;;2.30;;
33162;SDS011;29282;45.656;11.302;2023-02-28T15:02:25;6.18;;;2.63;;
33162;SDS011;29282;45.656;11.302;2023-02-28T15:07:24;4.55;;;2.67;;
33162;SDS011;29282;45.656;11.302;2023-02-28T15:12:53;4.50;;;2.63;;
33162;SDS011;29282;45.656;11.302;2023-02-28T15:15:21;3.70;;;2.10;;
33162;SDS011;29282;45.656;11.302;2023-02-28T15:17:51;3.72;;;2.40;;
33162;SDS011;29282;45.656;11.302;2023-02-28T15:20:21;3.00;;;2.65;;
33162;SDS011;29282;45.656;11.302;2023-02-28T15:22:48;7.88;;;2.53;;
33162;SDS011;29282;45.656;11.302;2023-02-28T15:25:18;5.63;;;2.30;;
33162;SDS011;29282;45.656;11.302;2023-02-28T15:27:50;3.15;;;2.28;;
33162;SDS011;29282;45.656;11.302;2023-02-28T15:35:31;3.03;;;2.22;;
33162;SDS011;29282;45.656;11.302;2023-02-28T15:40:28;2.80;;;2.50;;
33162;SDS011;29282;45.656;11.302;2023-02-28T15:43:15;5.72;;;2.47;;
33162;SDS011;29282;45.656;11.302;2023-02-28T15:45:49;5.25;;;2.40;;
33162;SDS011;29282;45.656;11.302;2023-02-28T15:48:20;2.60;;;2.15;;
33162;SDS011;29282;45.656;11.302;2023-02-28T15:53:39;2.58;;;2.10;;
33162;SDS011;29282;45.656;11.302;2023-02-28T15:58:55;6.53;;;2.60;;
33162;SDS011;29282;45.656;11.302;2023-02-28T16:01:27;3.03;;;2.30;;
33162;SDS011;29282;45.656;11.302;2023-02-28T16:03:59;2.42;;;2.22;;
33162;SDS011;29282;45.656;11.302;2023-02-28T16:09:01;3.00;;;2.03;;
33162;SDS011;29282;45.656;11.302;2023-02-28T16:11:27;4.22;;;2.35;;
33162;SDS011;29282;45.656;11.302;2023-02-28T16:13:53;4.28;;;2.35;;
33162;SDS011;29282;45.656;11.302;2023-02-28T16:16:20;3.50;;;2.40;;
33162;SDS011;29282;45.656;11.302;2023-02-28T16:18:47;3.60;;;2.30;;
33162;SDS011;29282;45.656;11.302;2023-02-28T16:21:13;2.75;;;2.17;;
33162;SDS011;29282;45.656;11.302;2023-02-28T16:23:39;4.25;;;2.38;;
33162;SDS011;29282;45.656;11.302;2023-02-28T16:26:04;2.53;;;2.28;;
33162;SDS011;29282;45.656;11.302;2023-02-28T16:28:32;3.63;;;2.20;;
33162;SDS011;29282;45.656;11.302;2023-02-28T16:31:00;3.92;;;2.33;;
33162;SDS011;29282;45.656;11.302;2023-02-28T16:33:29;2.30;;;1.92;;
33162;SDS011;29282;45.656;11.302;2023-02-28T16:35:55;3.60;;;2.40;;
33162;SDS011;29282;45.656;11.302;2023-02-28T16:38:21;3.65;;;2.33;;
33162;SDS011;29282;45.656;11.302;2023-02-28T16:40:49;2.63;;;2.30;;
33162;SDS011;29282;45.656;11.302;2023-02-28T16:43:19;3.30;;;2.33;;
33162;SDS011;29282;45.656;11.302;2023-02-28T16:45:48;2.15;;;1.98;;
33162;SDS011;29282;45.656;11.302;2023-02-28T16:48:19;2.20;;;1.92;;
33162;SDS011;29282;45.656;11.302;2023-02-28T16:50:44;2.70;;;2.05;;
33162;SDS011;29282;45.656;11.302;2023-02-28T16:53:10;2.58;;;2.20;;
33162;SDS011;29282;45.656;11.302;2023-02-28T16:55:35;2.47;;;2.17;;
33162;SDS011;29282;45.656;11.302;2023-02-28T16:58:02;3.20;;;2.03;;
33162;SDS011;29282;45.656;11.302;2023-02-28T17:00:29;2.10;;;1.90;;
33162;SDS011;29282;45.656;11.302;2023-02-28T17:02:56;2.10;;;1.90;;
33162;SDS011;29282;45.656;11.302;2023-02-28T17:05:24;2.88;;;2.30;;
33162;SDS011;29282;45.656;11.302;2023-02-28T17:07:50;2.90;;;2.28;;
33162;SDS011;29282;45.656;11.302;2023-02-28T17:10:17;3.20;;;2.20;;
33162;SDS011;29282;45.656;11.302;2023-02-28T17:12:46;4.18;;;1.95;;
33162;SDS011;29282;45.656;11.302;2023-02-28T17:15:13;3.92;;;2.35;;
33162;SDS011;29282;45.656;11.302;2023-02-28T17:17:40;2.78;;;2.30;;
33162;SDS011;29282;45.656;11.302;2023-02-28T17:20:09;2.45;;;2.05;;
33162;SDS011;29282;45.656;11.302;2023-02-28T17:22:38;2.35;;;2.15;;
33162;SDS011;29282;45.656;11.302;2023-02-28T17:25:04;2.13;;;1.90;;
33162;SDS011;29282;45.656;11.302;2023-02-28T17:27:30;3.60;;;1.95;;
33162;SDS011;29282;45.656;11.302;2023-02-28T17:29:56;2.75;;;2.25;;
33162;SDS011;29282;45.656;11.302;2023-02-28T17:32:21;3.00;;;2.28;;
33162;SDS011;29282;45.656;11.302;2023-02-28T17:34:47;2.47;;;1.95;;
33162;SDS011;29282;45.656;11.302;2023-02-28T17:37:12;2.72;;;2.05;;
33162;SDS011;29282;45.656;11.302;2023-02-28T17:39:37;2.47;;;2.25;;
33162;SDS011;29282;45.656;11.302;2023-02-28T17:42:03;2.30;;;2.00;;